sensor_id;sensor_type;location;lat;lon;timestamp;temperature;humidity
41985;DHT22;28319;48.116;10.818;2022-08-04T00:00:22;21.90;85.90
41985;DHT22;28319;48.116;10.818;2022-08-04T00:02:58;21.90;86.10
41985;DHT22;28319;48.116;10.818;2022-08-04T00:05:34;21.80;85.90
41985;DHT22;28319;48.116;10.818;2022-08-04T00:08:09;21.70;86.40
41985;DHT22;28319;48.116;10.818;2022-08-04T00:10:38;21.60;87.10
41985;DHT22;28319;48.116;10.818;2022-08-04T00:13:07;21.60;86.80
41985;DHT22;28319;48.116;10.818;2022-08-04T00:15:36;21.60;87.30
41985;DHT22;28319;48.116;10.818;2022-08-04T00:18:05;21.70;86.70
41985;DHT22;28319;48.116;10.818;2022-08-04T00:20:37;21.60;86.40
41985;DHT22;28319;48.116;10.818;2022-08-04T00:23:06;21.40;87.90
41985;DHT22;28319;48.116;10.818;2022-08-04T00:25:34;21.30;87.10
41985;DHT22;28319;48.116;10.818;2022-08-04T00:28:04;21.30;88.40
41985;DHT22;28319;48.116;10.818;2022-08-04T00:30:32;21.20;88.50
41985;DHT22;28319;48.116;10.818;2022-08-04T00:33:00;21.20;88.90
41985;DHT22;28319;48.116;10.818;2022-08-04T00:35:27;21.10;88.70
41985;DHT22;28319;48.116;10.818;2022-08-04T00:37:55;21.30;88.00
41985;DHT22;28319;48.116;10.818;2022-08-04T00:40:30;21.30;87.50
41985;DHT22;28319;48.116;10.818;2022-08-04T00:43:05;21.20;88.40
41985;DHT22;28319;48.116;10.818;2022-08-04T00:49:10;21.20;88.50
41985;DHT22;28319;48.116;10.818;2022-08-04T00:51:47;21.20;88.10
41985;DHT22;28319;48.116;10.818;2022-08-04T00:54:23;21.20;88.90
41985;DHT22;28319;48.116;10.818;2022-08-04T00:57:12;21.10;88.50
41985;DHT22;28319;48.116;10.818;2022-08-04T00:59:57;21.10;88.30
41985;DHT22;28319;48.116;10.818;2022-08-04T01:02:37;21.10;88.70
41985;DHT22;28319;48.116;10.818;2022-08-04T01:05:11;21.10;89.00
41985;DHT22;28319;48.116;10.818;2022-08-04T01:08:07;21.00;88.20
41985;DHT22;28319;48.116;10.818;2022-08-04T01:10:43;21.00;88.60
41985;DHT22;28319;48.116;10.818;2022-08-04T01:13:29;20.90;89.40
41985;DHT22;28319;48.116;10.818;2022-08-04T01:16:02;20.80;88.60
41985;DHT22;28319;48.116;10.818;2022-08-04T01:18:35;20.80;89.40
41985;DHT22;28319;48.116;10.818;2022-08-04T01:21:16;20.80;89.20
41985;DHT22;28319;48.116;10.818;2022-08-04T01:24:24;20.80;89.00
41985;DHT22;28319;48.116;10.818;2022-08-04T01:26:56;20.70;89.70
41985;DHT22;28319;48.116;10.818;2022-08-04T01:29:30;20.70;89.80
41985;DHT22;28319;48.116;10.818;2022-08-04T01:32:01;20.60;89.80
41985;DHT22;28319;48.116;10.818;2022-08-04T01:34:37;20.60;89.80
41985;DHT22;28319;48.116;10.818;2022-08-04T01:37:10;20.60;90.10
41985;DHT22;28319;48.116;10.818;2022-08-04T01:39:48;20.50;90.30
41985;DHT22;28319;48.116;10.818;2022-08-04T01:42:17;20.50;90.20
41985;DHT22;28319;48.116;10.818;2022-08-04T01:44:48;20.50;90.20
41985;DHT22;28319;48.116;10.818;2022-08-04T01:47:19;20.40;90.10
41985;DHT22;28319;48.116;10.818;2022-08-04T01:49:49;20.40;90.30
41985;DHT22;28319;48.116;10.818;2022-08-04T01:52:17;20.40;90.40
41985;DHT22;28319;48.116;10.818;2022-08-04T01:54:45;20.40;90.40
41985;DHT22;28319;48.116;10.818;2022-08-04T01:57:16;20.30;90.50
41985;DHT22;28319;48.116;10.818;2022-08-04T01:59:47;20.30;90.30
41985;DHT22;28319;48.116;10.818;2022-08-04T02:02:16;20.30;90.40
41985;DHT22;28319;48.116;10.818;2022-08-04T02:04:43;20.20;90.50
41985;DHT22;28319;48.116;10.818;2022-08-04T02:10:16;20.00;90.70
41985;DHT22;28319;48.116;10.818;2022-08-04T02:12:52;20.10;90.50
41985;DHT22;28319;48.116;10.818;2022-08-04T02:15:30;20.10;90.70
41985;DHT22;28319;48.116;10.818;2022-08-04T02:18:03;20.10;90.50
41985;DHT22;28319;48.116;10.818;2022-08-04T02:20:33;20.10;90.90
41985;DHT22;28319;48.116;10.818;2022-08-04T02:23:03;20.00;90.80
41985;DHT22;28319;48.116;10.818;2022-08-04T02:25:36;20.00;90.50
41985;DHT22;28319;48.116;10.818;2022-08-04T02:28:15;20.00;90.40
41985;DHT22;28319;48.116;10.818;2022-08-04T02:31:01;20.00;90.60
41985;DHT22;28319;48.116;10.818;2022-08-04T02:33:35;19.90;90.50
41985;DHT22;28319;48.116;10.818;2022-08-04T02:36:04;20.00;90.60
41985;DHT22;28319;48.116;10.818;2022-08-04T02:38:46;19.90;90.70
41985;DHT22;28319;48.116;10.818;2022-08-04T02:41:16;19.90;90.50
41985;DHT22;28319;48.116;10.818;2022-08-04T02:43:47;19.90;90.80
41985;DHT22;28319;48.116;10.818;2022-08-04T02:46:17;19.80;90.90
41985;DHT22;28319;48.116;10.818;2022-08-04T02:48:46;19.80;91.00
41985;DHT22;28319;48.116;10.818;2022-08-04T02:51:14;19.80;90.70
41985;DHT22;28319;48.116;10.818;2022-08-04T02:53:43;19.70;90.70
41985;DHT22;28319;48.116;10.818;2022-08-04T02:56:14;19.70;91.10
41985;DHT22;28319;48.116;10.818;2022-08-04T02:58:46;19.70;90.60
41985;DHT22;28319;48.116;10.818;2022-08-04T03:01:16;19.70;91.00
41985;DHT22;28319;48.116;10.818;2022-08-04T03:03:49;19.70;91.00
41985;DHT22;28319;48.116;10.818;2022-08-04T03:09:50;19.50;91.00
41985;DHT22;28319;48.116;10.818;2022-08-04T03:16:02;19.50;90.80
41985;DHT22;28319;48.116;10.818;2022-08-04T03:25:13;19.50;91.00
41985;DHT22;28319;48.116;10.818;2022-08-04T03:28:16;19.40;90.90
41985;DHT22;28319;48.116;10.818;2022-08-04T03:31:09;19.40;91.50
41985;DHT22;28319;48.116;10.818;2022-08-04T03:33:56;19.40;91.40
41985;DHT22;28319;48.116;10.818;2022-08-04T03:36:54;19.40;91.40
41985;DHT22;28319;48.116;10.818;2022-08-04T03:40:02;19.40;91.70
41985;DHT22;28319;48.116;10.818;2022-08-04T03:45:49;19.30;91.30
41985;DHT22;28319;48.116;10.818;2022-08-04T03:51:37;19.30;91.00
41985;DHT22;28319;48.116;10.818;2022-08-04T03:54:43;19.30;91.10
41985;DHT22;28319;48.116;10.818;2022-08-04T03:57:46;19.30;91.10
41985;DHT22;28319;48.116;10.818;2022-08-04T04:00:17;19.30;91.50
41985;DHT22;28319;48.116;10.818;2022-08-04T04:03:21;19.30;90.80
41985;DHT22;28319;48.116;10.818;2022-08-04T04:06:16;19.30;90.60
41985;DHT22;28319;48.116;10.818;2022-08-04T04:09:22;19.30;91.40
41985;DHT22;28319;48.116;10.818;2022-08-04T04:15:13;19.30;90.80
41985;DHT22;28319;48.116;10.818;2022-08-04T04:17:57;19.20;90.90
41985;DHT22;28319;48.116;10.818;2022-08-04T04:23:31;19.30;91.00
41985;DHT22;28319;48.116;10.818;2022-08-04T04:26:10;19.30;91.40
41985;DHT22;28319;48.116;10.818;2022-08-04T04:29:01;19.30;91.00
41985;DHT22;28319;48.116;10.818;2022-08-04T04:31:59;19.30;90.90
41985;DHT22;28319;48.116;10.818;2022-08-04T04:34:38;19.30;90.90
41985;DHT22;28319;48.116;10.818;2022-08-04T04:37:19;19.30;91.30
41985;DHT22;28319;48.116;10.818;2022-08-04T04:40:02;19.20;91.40
41985;DHT22;28319;48.116;10.818;2022-08-04T04:42:50;19.20;91.90
41985;DHT22;28319;48.116;10.818;2022-08-04T04:45:24;19.20;92.10
41985;DHT22;28319;48.116;10.818;2022-08-04T04:48:06;19.20;92.00
41985;DHT22;28319;48.116;10.818;2022-08-04T04:50:43;19.30;91.90
41985;DHT22;28319;48.116;10.818;2022-08-04T04:53:19;19.30;91.50
41985;DHT22;28319;48.116;10.818;2022-08-04T04:55:55;19.30;91.80
41985;DHT22;28319;48.116;10.818;2022-08-04T04:58:26;19.30;91.80
41985;DHT22;28319;48.116;10.818;2022-08-04T05:01:17;19.20;92.50
41985;DHT22;28319;48.116;10.818;2022-08-04T05:04:07;19.30;92.10
41985;DHT22;28319;48.116;10.818;2022-08-04T05:06:48;19.30;93.10
41985;DHT22;28319;48.116;10.818;2022-08-04T05:09:30;19.20;92.20
41985;DHT22;28319;48.116;10.818;2022-08-04T05:12:28;19.20;93.20
41985;DHT22;28319;48.116;10.818;2022-08-04T05:15:02;19.30;92.70
41985;DHT22;28319;48.116;10.818;2022-08-04T05:17:37;19.40;92.40
41985;DHT22;28319;48.116;10.818;2022-08-04T05:20:09;19.40;92.40
41985;DHT22;28319;48.116;10.818;2022-08-04T05:22:39;19.40;92.80
41985;DHT22;28319;48.116;10.818;2022-08-04T05:25:13;19.50;94.00
41985;DHT22;28319;48.116;10.818;2022-08-04T05:30:32;19.60;93.60
41985;DHT22;28319;48.116;10.818;2022-08-04T05:33:03;19.60;93.90
41985;DHT22;28319;48.116;10.818;2022-08-04T05:35:33;19.60;94.80
41985;DHT22;28319;48.116;10.818;2022-08-04T05:38:02;19.60;94.40
41985;DHT22;28319;48.116;10.818;2022-08-04T05:40:30;19.70;95.00
41985;DHT22;28319;48.116;10.818;2022-08-04T05:42:58;19.70;94.60
41985;DHT22;28319;48.116;10.818;2022-08-04T05:45:26;19.80;94.10
41985;DHT22;28319;48.116;10.818;2022-08-04T05:47:55;19.80;95.10
41985;DHT22;28319;48.116;10.818;2022-08-04T05:50:23;19.90;94.00
41985;DHT22;28319;48.116;10.818;2022-08-04T05:52:50;19.90;93.40
41985;DHT22;28319;48.116;10.818;2022-08-04T05:55:18;20.00;93.70
41985;DHT22;28319;48.116;10.818;2022-08-04T05:57:47;20.00;94.80
41985;DHT22;28319;48.116;10.818;2022-08-04T06:00:15;20.10;96.20
41985;DHT22;28319;48.116;10.818;2022-08-04T06:02:44;20.10;94.20
41985;DHT22;28319;48.116;10.818;2022-08-04T06:05:14;20.10;94.40
41985;DHT22;28319;48.116;10.818;2022-08-04T06:07:42;20.20;96.20
41985;DHT22;28319;48.116;10.818;2022-08-04T06:10:09;20.20;95.50
41985;DHT22;28319;48.116;10.818;2022-08-04T06:12:39;20.30;94.80
41985;DHT22;28319;48.116;10.818;2022-08-04T06:15:08;20.40;95.30
41985;DHT22;28319;48.116;10.818;2022-08-04T06:17:39;20.40;94.80
41985;DHT22;28319;48.116;10.818;2022-08-04T06:20:09;20.50;95.80
41985;DHT22;28319;48.116;10.818;2022-08-04T06:22:40;20.50;94.50
41985;DHT22;28319;48.116;10.818;2022-08-04T06:25:10;20.60;95.00
41985;DHT22;28319;48.116;10.818;2022-08-04T06:27:39;20.70;95.70
41985;DHT22;28319;48.116;10.818;2022-08-04T06:30:08;20.70;96.90
41985;DHT22;28319;48.116;10.818;2022-08-04T06:32:40;20.80;94.00
41985;DHT22;28319;48.116;10.818;2022-08-04T06:35:15;20.90;96.00
41985;DHT22;28319;48.116;10.818;2022-08-04T06:37:45;21.00;95.90
41985;DHT22;28319;48.116;10.818;2022-08-04T06:40:14;21.10;96.80
41985;DHT22;28319;48.116;10.818;2022-08-04T06:42:42;21.20;96.00
41985;DHT22;28319;48.116;10.818;2022-08-04T06:45:10;21.20;94.90
41985;DHT22;28319;48.116;10.818;2022-08-04T06:47:40;21.30;96.50
41985;DHT22;28319;48.116;10.818;2022-08-04T06:50:08;21.40;95.40
41985;DHT22;28319;48.116;10.818;2022-08-04T06:52:36;21.40;94.60
41985;DHT22;28319;48.116;10.818;2022-08-04T06:55:06;21.40;95.20
41985;DHT22;28319;48.116;10.818;2022-08-04T06:57:34;21.50;95.20
41985;DHT22;28319;48.116;10.818;2022-08-04T07:00:05;21.60;94.60
41985;DHT22;28319;48.116;10.818;2022-08-04T07:02:40;21.60;95.00
41985;DHT22;28319;48.116;10.818;2022-08-04T07:05:09;21.70;95.40
41985;DHT22;28319;48.116;10.818;2022-08-04T07:07:37;21.80;94.80
41985;DHT22;28319;48.116;10.818;2022-08-04T07:10:08;21.80;95.00
41985;DHT22;28319;48.116;10.818;2022-08-04T07:12:35;21.90;95.10
41985;DHT22;28319;48.116;10.818;2022-08-04T07:15:04;22.00;94.90
41985;DHT22;28319;48.116;10.818;2022-08-04T07:17:33;22.10;94.70
41985;DHT22;28319;48.116;10.818;2022-08-04T07:20:01;22.10;94.80
41985;DHT22;28319;48.116;10.818;2022-08-04T07:22:30;22.20;95.00
41985;DHT22;28319;48.116;10.818;2022-08-04T07:24:58;22.30;94.60
41985;DHT22;28319;48.116;10.818;2022-08-04T07:27:27;22.30;94.10
41985;DHT22;28319;48.116;10.818;2022-08-04T07:29:55;22.40;93.30
41985;DHT22;28319;48.116;10.818;2022-08-04T07:32:23;22.40;92.60
41985;DHT22;28319;48.116;10.818;2022-08-04T07:34:50;22.60;92.90
41985;DHT22;28319;48.116;10.818;2022-08-04T07:37:18;22.60;93.00
41985;DHT22;28319;48.116;10.818;2022-08-04T07:39:45;22.70;92.30
41985;DHT22;28319;48.116;10.818;2022-08-04T07:42:13;22.80;92.50
41985;DHT22;28319;48.116;10.818;2022-08-04T07:44:44;22.80;93.10
41985;DHT22;28319;48.116;10.818;2022-08-04T07:47:12;22.80;93.00
41985;DHT22;28319;48.116;10.818;2022-08-04T07:49:40;23.00;93.00
41985;DHT22;28319;48.116;10.818;2022-08-04T07:52:08;22.90;93.00
41985;DHT22;28319;48.116;10.818;2022-08-04T07:54:35;23.10;93.20
41985;DHT22;28319;48.116;10.818;2022-08-04T07:57:04;23.20;92.90
41985;DHT22;28319;48.116;10.818;2022-08-04T07:59:31;23.30;93.30
41985;DHT22;28319;48.116;10.818;2022-08-04T08:02:01;23.30;93.10
41985;DHT22;28319;48.116;10.818;2022-08-04T08:04:29;23.50;92.80
41985;DHT22;28319;48.116;10.818;2022-08-04T08:06:56;23.50;92.90
41985;DHT22;28319;48.116;10.818;2022-08-04T08:09:24;23.60;93.00
41985;DHT22;28319;48.116;10.818;2022-08-04T08:11:52;23.60;92.80
41985;DHT22;28319;48.116;10.818;2022-08-04T08:14:20;23.70;92.30
41985;DHT22;28319;48.116;10.818;2022-08-04T08:16:47;23.90;92.50
41985;DHT22;28319;48.116;10.818;2022-08-04T08:19:16;23.90;92.50
41985;DHT22;28319;48.116;10.818;2022-08-04T08:21:45;24.10;92.50
41985;DHT22;28319;48.116;10.818;2022-08-04T08:24:13;24.30;92.70
41985;DHT22;28319;48.116;10.818;2022-08-04T08:26:41;24.30;92.20
41985;DHT22;28319;48.116;10.818;2022-08-04T08:29:08;24.50;91.50
41985;DHT22;28319;48.116;10.818;2022-08-04T08:31:35;24.60;90.30
41985;DHT22;28319;48.116;10.818;2022-08-04T08:34:02;24.60;90.80
41985;DHT22;28319;48.116;10.818;2022-08-04T08:36:36;24.70;91.80
41985;DHT22;28319;48.116;10.818;2022-08-04T08:39:09;24.90;91.00
41985;DHT22;28319;48.116;10.818;2022-08-04T08:42:07;25.00;90.40
41985;DHT22;28319;48.116;10.818;2022-08-04T08:44:55;25.10;90.60
41985;DHT22;28319;48.116;10.818;2022-08-04T08:47:47;25.20;89.40
41985;DHT22;28319;48.116;10.818;2022-08-04T08:50:44;25.30;88.00
41985;DHT22;28319;48.116;10.818;2022-08-04T08:53:26;25.40;88.50
41985;DHT22;28319;48.116;10.818;2022-08-04T08:56:10;25.50;89.20
41985;DHT22;28319;48.116;10.818;2022-08-04T08:58:48;25.70;86.30
41985;DHT22;28319;48.116;10.818;2022-08-04T09:01:30;25.70;87.10
41985;DHT22;28319;48.116;10.818;2022-08-04T09:04:25;25.80;86.90
41985;DHT22;28319;48.116;10.818;2022-08-04T09:07:09;25.90;86.80
41985;DHT22;28319;48.116;10.818;2022-08-04T09:10:05;26.10;85.80
41985;DHT22;28319;48.116;10.818;2022-08-04T09:12:40;26.20;83.30
41985;DHT22;28319;48.116;10.818;2022-08-04T09:15:14;26.30;84.90
41985;DHT22;28319;48.116;10.818;2022-08-04T09:17:46;26.30;84.70
41985;DHT22;28319;48.116;10.818;2022-08-04T09:20:20;26.50;82.80
41985;DHT22;28319;48.116;10.818;2022-08-04T09:22:50;26.60;81.30
41985;DHT22;28319;48.116;10.818;2022-08-04T09:25:23;26.80;81.60
41985;DHT22;28319;48.116;10.818;2022-08-04T09:27:53;26.80;81.50
41985;DHT22;28319;48.116;10.818;2022-08-04T09:30:26;26.90;81.30
41985;DHT22;28319;48.116;10.818;2022-08-04T09:33:01;27.00;80.30
41985;DHT22;28319;48.116;10.818;2022-08-04T09:35:36;27.20;78.60
41985;DHT22;28319;48.116;10.818;2022-08-04T09:38:15;27.30;79.70
41985;DHT22;28319;48.116;10.818;2022-08-04T09:40:48;27.50;78.40
41985;DHT22;28319;48.116;10.818;2022-08-04T09:43:29;27.70;78.90
41985;DHT22;28319;48.116;10.818;2022-08-04T09:46:04;27.80;78.80
41985;DHT22;28319;48.116;10.818;2022-08-04T09:48:41;28.00;78.90
41985;DHT22;28319;48.116;10.818;2022-08-04T09:51:23;28.10;76.50
41985;DHT22;28319;48.116;10.818;2022-08-04T09:54:00;28.40;76.20
41985;DHT22;28319;48.116;10.818;2022-08-04T09:56:37;28.60;74.80
41985;DHT22;28319;48.116;10.818;2022-08-04T09:59:15;28.80;74.30
41985;DHT22;28319;48.116;10.818;2022-08-04T10:01:44;29.00;77.00
41985;DHT22;28319;48.116;10.818;2022-08-04T10:04:13;29.20;75.80
41985;DHT22;28319;48.116;10.818;2022-08-04T10:07:16;29.30;74.00
41985;DHT22;28319;48.116;10.818;2022-08-04T10:10:02;29.40;73.30
41985;DHT22;28319;48.116;10.818;2022-08-04T10:12:45;29.70;75.10
41985;DHT22;28319;48.116;10.818;2022-08-04T10:15:16;29.90;73.10
41985;DHT22;28319;48.116;10.818;2022-08-04T10:18:01;30.00;73.30
41985;DHT22;28319;48.116;10.818;2022-08-04T10:20:45;30.10;72.60
41985;DHT22;28319;48.116;10.818;2022-08-04T10:23:22;30.30;71.40
41985;DHT22;28319;48.116;10.818;2022-08-04T10:26:04;30.50;72.80
41985;DHT22;28319;48.116;10.818;2022-08-04T10:28:37;30.70;69.70
41985;DHT22;28319;48.116;10.818;2022-08-04T10:31:09;30.80;67.80
41985;DHT22;28319;48.116;10.818;2022-08-04T10:33:44;30.90;69.30
41985;DHT22;28319;48.116;10.818;2022-08-04T10:36:17;31.00;70.30
41985;DHT22;28319;48.116;10.818;2022-08-04T10:38:51;31.10;69.30
41985;DHT22;28319;48.116;10.818;2022-08-04T10:41:29;31.40;69.10
41985;DHT22;28319;48.116;10.818;2022-08-04T10:44:09;31.50;67.90
41985;DHT22;28319;48.116;10.818;2022-08-04T10:46:44;31.50;66.70
41985;DHT22;28319;48.116;10.818;2022-08-04T10:49:19;31.50;67.70
41985;DHT22;28319;48.116;10.818;2022-08-04T10:51:52;31.70;67.20
41985;DHT22;28319;48.116;10.818;2022-08-04T10:54:26;32.00;67.50
41985;DHT22;28319;48.116;10.818;2022-08-04T10:56:58;32.20;66.10
41985;DHT22;28319;48.116;10.818;2022-08-04T10:59:34;32.20;63.80
41985;DHT22;28319;48.116;10.818;2022-08-04T11:02:16;32.30;65.70
41985;DHT22;28319;48.116;10.818;2022-08-04T11:04:48;32.40;66.20
41985;DHT22;28319;48.116;10.818;2022-08-04T11:07:18;32.50;64.30
41985;DHT22;28319;48.116;10.818;2022-08-04T11:09:46;32.80;68.20
41985;DHT22;28319;48.116;10.818;2022-08-04T11:12:18;33.00;66.00
41985;DHT22;28319;48.116;10.818;2022-08-04T11:14:53;33.00;64.70
41985;DHT22;28319;48.116;10.818;2022-08-04T11:17:25;33.20;64.30
41985;DHT22;28319;48.116;10.818;2022-08-04T11:20:01;33.30;63.50
41985;DHT22;28319;48.116;10.818;2022-08-04T11:22:29;33.40;65.50
41985;DHT22;28319;48.116;10.818;2022-08-04T11:25:05;33.50;63.00
41985;DHT22;28319;48.116;10.818;2022-08-04T11:27:39;33.20;65.50
41985;DHT22;28319;48.116;10.818;2022-08-04T11:30:13;33.40;63.20
41985;DHT22;28319;48.116;10.818;2022-08-04T11:32:45;33.60;64.90
41985;DHT22;28319;48.116;10.818;2022-08-04T11:35:27;33.70;60.50
41985;DHT22;28319;48.116;10.818;2022-08-04T11:38:01;33.60;58.20
41985;DHT22;28319;48.116;10.818;2022-08-04T11:40:36;33.70;59.30
41985;DHT22;28319;48.116;10.818;2022-08-04T11:43:08;33.80;59.90
41985;DHT22;28319;48.116;10.818;2022-08-04T11:45:46;33.70;60.40
41985;DHT22;28319;48.116;10.818;2022-08-04T11:48:18;33.70;58.90
41985;DHT22;28319;48.116;10.818;2022-08-04T11:50:49;33.80;58.70
41985;DHT22;28319;48.116;10.818;2022-08-04T11:53:20;34.00;61.40
41985;DHT22;28319;48.116;10.818;2022-08-04T11:55:51;33.90;57.30
41985;DHT22;28319;48.116;10.818;2022-08-04T11:58:19;33.90;58.90
41985;DHT22;28319;48.116;10.818;2022-08-04T12:00:55;34.10;57.70
41985;DHT22;28319;48.116;10.818;2022-08-04T12:03:33;34.10;58.60
41985;DHT22;28319;48.116;10.818;2022-08-04T12:06:09;34.40;59.30
41985;DHT22;28319;48.116;10.818;2022-08-04T12:08:55;34.40;59.70
41985;DHT22;28319;48.116;10.818;2022-08-04T12:11:29;34.60;58.70
41985;DHT22;28319;48.116;10.818;2022-08-04T12:14:08;34.70;59.50
41985;DHT22;28319;48.116;10.818;2022-08-04T12:16:47;34.90;57.80
41985;DHT22;28319;48.116;10.818;2022-08-04T12:19:20;35.00;58.90
41985;DHT22;28319;48.116;10.818;2022-08-04T12:21:51;35.10;56.60
41985;DHT22;28319;48.116;10.818;2022-08-04T12:24:21;34.90;57.00
41985;DHT22;28319;48.116;10.818;2022-08-04T12:26:52;34.70;55.80
41985;DHT22;28319;48.116;10.818;2022-08-04T12:29:21;34.40;57.30
41985;DHT22;28319;48.116;10.818;2022-08-04T12:31:54;34.60;58.50
41985;DHT22;28319;48.116;10.818;2022-08-04T12:34:27;34.70;58.50
41985;DHT22;28319;48.116;10.818;2022-08-04T12:37:01;35.00;58.50
41985;DHT22;28319;48.116;10.818;2022-08-04T12:39:29;35.20;56.30
41985;DHT22;28319;48.116;10.818;2022-08-04T12:42:01;35.00;55.20
41985;DHT22;28319;48.116;10.818;2022-08-04T12:44:34;34.80;55.70
41985;DHT22;28319;48.116;10.818;2022-08-04T12:47:05;34.60;56.30
41985;DHT22;28319;48.116;10.818;2022-08-04T12:49:37;34.90;56.70
41985;DHT22;28319;48.116;10.818;2022-08-04T12:52:06;35.30;54.90
41985;DHT22;28319;48.116;10.818;2022-08-04T12:54:35;35.00;53.50
41985;DHT22;28319;48.116;10.818;2022-08-04T12:57:05;35.20;55.70
41985;DHT22;28319;48.116;10.818;2022-08-04T12:59:37;35.40;54.40
41985;DHT22;28319;48.116;10.818;2022-08-04T13:02:11;35.50;54.60
41985;DHT22;28319;48.116;10.818;2022-08-04T13:04:42;35.60;52.80
41985;DHT22;28319;48.116;10.818;2022-08-04T13:07:14;35.60;52.60
41985;DHT22;28319;48.116;10.818;2022-08-04T13:09:42;35.20;52.80
41985;DHT22;28319;48.116;10.818;2022-08-04T13:12:12;35.10;52.60
41985;DHT22;28319;48.116;10.818;2022-08-04T13:14:41;35.00;53.50
41985;DHT22;28319;48.116;10.818;2022-08-04T13:17:11;35.10;54.10
41985;DHT22;28319;48.116;10.818;2022-08-04T13:19:43;35.30;52.60
41985;DHT22;28319;48.116;10.818;2022-08-04T13:22:13;35.30;53.30
41985;DHT22;28319;48.116;10.818;2022-08-04T13:24:51;35.40;53.70
41985;DHT22;28319;48.116;10.818;2022-08-04T13:27:20;35.50;52.80
41985;DHT22;28319;48.116;10.818;2022-08-04T13:29:54;35.60;52.90
41985;DHT22;28319;48.116;10.818;2022-08-04T13:32:25;35.80;54.30
41985;DHT22;28319;48.116;10.818;2022-08-04T13:34:54;36.10;53.30
41985;DHT22;28319;48.116;10.818;2022-08-04T13:37:25;35.90;54.40
41985;DHT22;28319;48.116;10.818;2022-08-04T13:39:57;35.90;54.10
41985;DHT22;28319;48.116;10.818;2022-08-04T13:42:26;35.90;53.00
41985;DHT22;28319;48.116;10.818;2022-08-04T13:44:56;35.90;53.40
41985;DHT22;28319;48.116;10.818;2022-08-04T13:47:28;36.00;53.30
41985;DHT22;28319;48.116;10.818;2022-08-04T13:50:20;36.10;51.90
41985;DHT22;28319;48.116;10.818;2022-08-04T13:52:51;35.50;51.50
41985;DHT22;28319;48.116;10.818;2022-08-04T13:55:22;35.60;54.10
41985;DHT22;28319;48.116;10.818;2022-08-04T13:57:53;35.80;54.90
41985;DHT22;28319;48.116;10.818;2022-08-04T14:00:22;35.90;54.40
41985;DHT22;28319;48.116;10.818;2022-08-04T14:02:59;36.10;53.60
41985;DHT22;28319;48.116;10.818;2022-08-04T14:05:29;36.20;52.70
41985;DHT22;28319;48.116;10.818;2022-08-04T14:08:02;36.30;53.20
41985;DHT22;28319;48.116;10.818;2022-08-04T14:10:32;36.30;53.20
41985;DHT22;28319;48.116;10.818;2022-08-04T14:12:59;35.90;52.40
41985;DHT22;28319;48.116;10.818;2022-08-04T14:15:31;35.60;52.00
41985;DHT22;28319;48.116;10.818;2022-08-04T14:18:30;35.60;52.40
41985;DHT22;28319;48.116;10.818;2022-08-04T14:21:05;35.70;52.90
41985;DHT22;28319;48.116;10.818;2022-08-04T14:23:46;35.40;52.30
41985;DHT22;28319;48.116;10.818;2022-08-04T14:26:20;35.30;51.90
41985;DHT22;28319;48.116;10.818;2022-08-04T14:28:48;35.50;52.50
41985;DHT22;28319;48.116;10.818;2022-08-04T14:31:18;35.70;53.00
41985;DHT22;28319;48.116;10.818;2022-08-04T14:33:48;35.90;53.80
41985;DHT22;28319;48.116;10.818;2022-08-04T14:36:17;36.00;53.00
41985;DHT22;28319;48.116;10.818;2022-08-04T14:38:48;35.90;52.50
41985;DHT22;28319;48.116;10.818;2022-08-04T14:41:18;35.90;52.10
41985;DHT22;28319;48.116;10.818;2022-08-04T14:43:49;35.70;52.50
41985;DHT22;28319;48.116;10.818;2022-08-04T14:46:17;35.80;52.60
41985;DHT22;28319;48.116;10.818;2022-08-04T14:49:07;35.80;52.50
41985;DHT22;28319;48.116;10.818;2022-08-04T14:51:36;35.50;50.80
41985;DHT22;28319;48.116;10.818;2022-08-04T14:54:05;35.00;51.50
41985;DHT22;28319;48.116;10.818;2022-08-04T14:56:33;35.00;53.20
41985;DHT22;28319;48.116;10.818;2022-08-04T14:59:03;35.20;51.80
41985;DHT22;28319;48.116;10.818;2022-08-04T15:01:31;35.30;54.10
41985;DHT22;28319;48.116;10.818;2022-08-04T15:04:00;35.10;52.80
41985;DHT22;28319;48.116;10.818;2022-08-04T15:06:30;35.10;53.20
41985;DHT22;28319;48.116;10.818;2022-08-04T15:09:01;35.10;53.30
41985;DHT22;28319;48.116;10.818;2022-08-04T15:11:29;35.00;52.60
41985;DHT22;28319;48.116;10.818;2022-08-04T15:13:57;34.90;52.80
41985;DHT22;28319;48.116;10.818;2022-08-04T15:16:26;34.90;52.30
41985;DHT22;28319;48.116;10.818;2022-08-04T15:18:54;34.80;52.20
41985;DHT22;28319;48.116;10.818;2022-08-04T15:21:21;34.70;52.60
41985;DHT22;28319;48.116;10.818;2022-08-04T15:23:51;34.60;52.00
41985;DHT22;28319;48.116;10.818;2022-08-04T15:26:24;34.40;44.20
41985;DHT22;28319;48.116;10.818;2022-08-04T15:28:56;34.40;46.30
41985;DHT22;28319;48.116;10.818;2022-08-04T15:31:25;34.40;46.90
41985;DHT22;28319;48.116;10.818;2022-08-04T15:33:54;34.20;46.90
41985;DHT22;28319;48.116;10.818;2022-08-04T15:36:29;34.20;46.90
41985;DHT22;28319;48.116;10.818;2022-08-04T15:39:04;34.30;48.00
41985;DHT22;28319;48.116;10.818;2022-08-04T15:41:38;34.30;46.90
41985;DHT22;28319;48.116;10.818;2022-08-04T15:44:23;34.30;45.60
41985;DHT22;28319;48.116;10.818;2022-08-04T15:47:11;34.20;45.50
41985;DHT22;28319;48.116;10.818;2022-08-04T15:49:38;34.20;45.70
41985;DHT22;28319;48.116;10.818;2022-08-04T15:52:09;34.20;44.90
41985;DHT22;28319;48.116;10.818;2022-08-04T15:54:38;34.20;46.40
41985;DHT22;28319;48.116;10.818;2022-08-04T16:00:02;34.10;47.10
41985;DHT22;28319;48.116;10.818;2022-08-04T16:02:39;34.10;48.70
41985;DHT22;28319;48.116;10.818;2022-08-04T16:05:33;34.10;46.10
41985;DHT22;28319;48.116;10.818;2022-08-04T16:08:14;34.00;44.60
41985;DHT22;28319;48.116;10.818;2022-08-04T16:10:48;34.00;46.00
41985;DHT22;28319;48.116;10.818;2022-08-04T16:13:17;34.10;45.50
41985;DHT22;28319;48.116;10.818;2022-08-04T16:15:48;34.00;45.70
41985;DHT22;28319;48.116;10.818;2022-08-04T16:18:39;34.00;46.80
41985;DHT22;28319;48.116;10.818;2022-08-04T16:21:22;34.00;44.20
41985;DHT22;28319;48.116;10.818;2022-08-04T16:24:00;33.90;42.10
41985;DHT22;28319;48.116;10.818;2022-08-04T16:26:48;33.90;44.60
41985;DHT22;28319;48.116;10.818;2022-08-04T16:29:33;33.80;45.20
41985;DHT22;28319;48.116;10.818;2022-08-04T16:32:20;33.80;47.20
41985;DHT22;28319;48.116;10.818;2022-08-04T16:34:53;33.70;45.50
41985;DHT22;28319;48.116;10.818;2022-08-04T16:37:28;33.60;46.20